sensor_id;sensor_type;location;lat;lon;timestamp;temperature;humidity
75436;DHT22;64014;53.432;14.534;2022-12-18T00:00:57;-4.00;83.70
75436;DHT22;64014;53.432;14.534;2022-12-18T00:03:22;-4.00;83.50
75436;DHT22;64014;53.432;14.534;2022-12-18T00:05:49;-4.00;83.60
75436;DHT22;64014;53.432;14.534;2022-12-18T00:08:16;-4.00;83.50
75436;DHT22;64014;53.432;14.534;2022-12-18T00:10:43;-3.90;83.50
75436;DHT22;64014;53.432;14.534;2022-12-18T00:13:09;-3.80;83.50
75436;DHT22;64014;53.432;14.534;2022-12-18T00:15:36;-3.80;83.30
75436;DHT22;64014;53.432;14.534;2022-12-18T00:18:02;-3.80;82.70
75436;DHT22;64014;53.432;14.534;2022-12-18T00:20:28;-3.80;82.60
75436;DHT22;64014;53.432;14.534;2022-12-18T00:22:54;-3.70;82.50
75436;DHT22;64014;53.432;14.534;2022-12-18T00:25:20;-3.70;82.10
75436;DHT22;64014;53.432;14.534;2022-12-18T00:27:46;-3.80;82.00
75436;DHT22;64014;53.432;14.534;2022-12-18T00:30:12;-3.80;81.90
75436;DHT22;64014;53.432;14.534;2022-12-18T00:32:37;-4.00;81.90
75436;DHT22;64014;53.432;14.534;2022-12-18T00:35:04;-4.10;82.40
75436;DHT22;64014;53.432;14.534;2022-12-18T00:37:30;-4.20;82.90
75436;DHT22;64014;53.432;14.534;2022-12-18T00:39:56;-4.30;83.20
75436;DHT22;64014;53.432;14.534;2022-12-18T00:42:21;-4.30;83.40
75436;DHT22;64014;53.432;14.534;2022-12-18T00:45:06;-4.40;83.60
75436;DHT22;64014;53.432;14.534;2022-12-18T00:47:32;-4.60;84.10
75436;DHT22;64014;53.432;14.534;2022-12-18T00:49:57;-4.60;84.30
75436;DHT22;64014;53.432;14.534;2022-12-18T00:52:23;-4.60;84.50
75436;DHT22;64014;53.432;14.534;2022-12-18T00:54:49;-4.50;84.60
75436;DHT22;64014;53.432;14.534;2022-12-18T00:57:14;-4.60;84.60
75436;DHT22;64014;53.432;14.534;2022-12-18T00:59:40;-4.50;84.80
75436;DHT22;64014;53.432;14.534;2022-12-18T01:02:06;-4.60;84.70
75436;DHT22;64014;53.432;14.534;2022-12-18T01:04:32;-4.60;84.80
75436;DHT22;64014;53.432;14.534;2022-12-18T01:06:58;-4.60;85.00
75436;DHT22;64014;53.432;14.534;2022-12-18T01:09:24;-4.60;85.10
75436;DHT22;64014;53.432;14.534;2022-12-18T01:11:50;-4.60;85.20
75436;DHT22;64014;53.432;14.534;2022-12-18T01:14:15;-4.60;85.20
75436;DHT22;64014;53.432;14.534;2022-12-18T01:16:41;-4.60;85.20
75436;DHT22;64014;53.432;14.534;2022-12-18T01:19:07;-4.60;85.10
75436;DHT22;64014;53.432;14.534;2022-12-18T01:21:33;-4.60;85.20
75436;DHT22;64014;53.432;14.534;2022-12-18T01:23:59;-4.60;85.10
75436;DHT22;64014;53.432;14.534;2022-12-18T01:26:25;-4.60;85.00
75436;DHT22;64014;53.432;14.534;2022-12-18T01:28:54;-4.70;85.20
75436;DHT22;64014;53.432;14.534;2022-12-18T01:31:28;-4.70;85.30
75436;DHT22;64014;53.432;14.534;2022-12-18T01:33:55;-4.80;85.30
75436;DHT22;64014;53.432;14.534;2022-12-18T01:36:25;-4.80;85.50
75436;DHT22;64014;53.432;14.534;2022-12-18T01:38:51;-4.90;85.60
75436;DHT22;64014;53.432;14.534;2022-12-18T01:41:19;-4.80;85.80
75436;DHT22;64014;53.432;14.534;2022-12-18T01:46:21;-4.80;85.80
75436;DHT22;64014;53.432;14.534;2022-12-18T01:48:57;-4.80;85.70
75436;DHT22;64014;53.432;14.534;2022-12-18T01:51:26;-4.70;85.70
75436;DHT22;64014;53.432;14.534;2022-12-18T01:53:52;-4.70;85.60
75436;DHT22;64014;53.432;14.534;2022-12-18T01:56:20;-4.60;85.60
75436;DHT22;64014;53.432;14.534;2022-12-18T01:59:01;-4.60;85.60
75436;DHT22;64014;53.432;14.534;2022-12-18T02:01:30;-4.60;85.40
75436;DHT22;64014;53.432;14.534;2022-12-18T02:03:56;-4.60;85.30
75436;DHT22;64014;53.432;14.534;2022-12-18T02:06:41;-4.60;85.10
75436;DHT22;64014;53.432;14.534;2022-12-18T02:09:20;-4.60;84.90
75436;DHT22;64014;53.432;14.534;2022-12-18T02:12:05;-4.60;84.60
75436;DHT22;64014;53.432;14.534;2022-12-18T02:14:58;-4.60;84.60
75436;DHT22;64014;53.432;14.534;2022-12-18T02:20:36;-4.60;84.60
75436;DHT22;64014;53.432;14.534;2022-12-18T02:23:45;-4.60;84.40
75436;DHT22;64014;53.432;14.534;2022-12-18T02:29:04;-4.60;84.30
75436;DHT22;64014;53.432;14.534;2022-12-18T02:31:36;-4.60;84.30
75436;DHT22;64014;53.432;14.534;2022-12-18T02:34:06;-4.60;84.20
75436;DHT22;64014;53.432;14.534;2022-12-18T02:36:33;-4.60;84.00
75436;DHT22;64014;53.432;14.534;2022-12-18T02:39:02;-4.60;84.00
75436;DHT22;64014;53.432;14.534;2022-12-18T02:41:29;-4.60;84.10
75436;DHT22;64014;53.432;14.534;2022-12-18T02:44:00;-4.60;83.80
75436;DHT22;64014;53.432;14.534;2022-12-18T02:46:34;-4.60;83.30
75436;DHT22;64014;53.432;14.534;2022-12-18T02:49:24;-4.60;83.00
75436;DHT22;64014;53.432;14.534;2022-12-18T02:58:14;-4.70;82.70
75436;DHT22;64014;53.432;14.534;2022-12-18T03:00:48;-4.60;82.60
75436;DHT22;64014;53.432;14.534;2022-12-18T03:03:46;-4.60;82.60
75436;DHT22;64014;53.432;14.534;2022-12-18T03:06:37;-4.60;82.10
75436;DHT22;64014;53.432;14.534;2022-12-18T03:09:09;-4.80;81.80
75436;DHT22;64014;53.432;14.534;2022-12-18T03:11:40;-4.90;82.20
75436;DHT22;64014;53.432;14.534;2022-12-18T03:14:26;-4.90;82.30
75436;DHT22;64014;53.432;14.534;2022-12-18T03:16:59;-5.00;82.50
75436;DHT22;64014;53.432;14.534;2022-12-18T03:19:28;-5.00;82.60
75436;DHT22;64014;53.432;14.534;2022-12-18T03:21:56;-4.90;82.60
75436;DHT22;64014;53.432;14.534;2022-12-18T03:24:24;-4.90;82.60
75436;DHT22;64014;53.432;14.534;2022-12-18T03:26:54;-5.00;82.60
75436;DHT22;64014;53.432;14.534;2022-12-18T03:29:36;-5.00;82.70
75436;DHT22;64014;53.432;14.534;2022-12-18T03:32:08;-5.00;82.80
75436;DHT22;64014;53.432;14.534;2022-12-18T03:34:37;-4.90;82.80
75436;DHT22;64014;53.432;14.534;2022-12-18T03:37:04;-4.90;82.60
75436;DHT22;64014;53.432;14.534;2022-12-18T03:39:31;-4.90;82.70
75436;DHT22;64014;53.432;14.534;2022-12-18T03:42:05;-5.00;82.50
75436;DHT22;64014;53.432;14.534;2022-12-18T03:45:01;-5.00;82.70
75436;DHT22;64014;53.432;14.534;2022-12-18T03:47:35;-5.00;82.90
75436;DHT22;64014;53.432;14.534;2022-12-18T03:50:34;-5.00;83.00
75436;DHT22;64014;53.432;14.534;2022-12-18T03:53:32;-5.00;83.00
75436;DHT22;64014;53.432;14.534;2022-12-18T03:56:02;-5.00;83.00
75436;DHT22;64014;53.432;14.534;2022-12-18T03:58:31;-4.90;83.00
75436;DHT22;64014;53.432;14.534;2022-12-18T04:01:02;-4.80;83.00
75436;DHT22;64014;53.432;14.534;2022-12-18T04:03:29;-4.70;82.90
75436;DHT22;64014;53.432;14.534;2022-12-18T04:05:57;-4.60;82.70
75436;DHT22;64014;53.432;14.534;2022-12-18T04:08:24;-4.60;82.60
75436;DHT22;64014;53.432;14.534;2022-12-18T04:10:51;-4.60;82.40
75436;DHT22;64014;53.432;14.534;2022-12-18T04:13:27;-4.50;82.40
75436;DHT22;64014;53.432;14.534;2022-12-18T04:15:53;-4.40;82.50
75436;DHT22;64014;53.432;14.534;2022-12-18T04:18:19;-4.30;82.40
75436;DHT22;64014;53.432;14.534;2022-12-18T04:20:44;-4.20;82.10
75436;DHT22;64014;53.432;14.534;2022-12-18T04:23:10;-4.10;81.70
75436;DHT22;64014;53.432;14.534;2022-12-18T04:25:36;-4.00;81.30
75436;DHT22;64014;53.432;14.534;2022-12-18T04:28:02;-4.00;81.10
75436;DHT22;64014;53.432;14.534;2022-12-18T04:30:28;-3.80;80.60
75436;DHT22;64014;53.432;14.534;2022-12-18T04:32:55;-3.80;80.30
75436;DHT22;64014;53.432;14.534;2022-12-18T04:35:21;-3.90;79.50
75436;DHT22;64014;53.432;14.534;2022-12-18T04:37:47;-4.00;79.30
75436;DHT22;64014;53.432;14.534;2022-12-18T04:40:12;-4.00;79.40
75436;DHT22;64014;53.432;14.534;2022-12-18T04:42:39;-4.20;79.70
75436;DHT22;64014;53.432;14.534;2022-12-18T04:45:06;-4.40;80.30
75436;DHT22;64014;53.432;14.534;2022-12-18T04:47:32;-4.40;80.90
75436;DHT22;64014;53.432;14.534;2022-12-18T04:49:58;-4.30;81.10
75436;DHT22;64014;53.432;14.534;2022-12-18T04:52:24;-4.30;81.00
75436;DHT22;64014;53.432;14.534;2022-12-18T04:54:49;-4.20;80.90
75436;DHT22;64014;53.432;14.534;2022-12-18T04:57:16;-4.20;80.70
75436;DHT22;64014;53.432;14.534;2022-12-18T04:59:43;-4.10;80.50
75436;DHT22;64014;53.432;14.534;2022-12-18T05:02:09;-4.10;80.40
75436;DHT22;64014;53.432;14.534;2022-12-18T05:04:35;-4.00;80.10
75436;DHT22;64014;53.432;14.534;2022-12-18T05:07:01;-4.00;79.70
75436;DHT22;64014;53.432;14.534;2022-12-18T05:09:26;-3.90;79.30
75436;DHT22;64014;53.432;14.534;2022-12-18T05:11:52;-3.90;78.90
75436;DHT22;64014;53.432;14.534;2022-12-18T05:14:18;-3.90;78.60
75436;DHT22;64014;53.432;14.534;2022-12-18T05:16:43;-3.90;78.50
75436;DHT22;64014;53.432;14.534;2022-12-18T05:19:09;-4.00;78.40
75436;DHT22;64014;53.432;14.534;2022-12-18T05:21:35;-3.90;78.40
75436;DHT22;64014;53.432;14.534;2022-12-18T05:24:00;-3.80;78.30
75436;DHT22;64014;53.432;14.534;2022-12-18T05:26:26;-3.80;78.40
75436;DHT22;64014;53.432;14.534;2022-12-18T05:28:52;-3.80;78.30
75436;DHT22;64014;53.432;14.534;2022-12-18T05:31:18;-3.80;78.00
75436;DHT22;64014;53.432;14.534;2022-12-18T05:33:43;-3.80;77.90
75436;DHT22;64014;53.432;14.534;2022-12-18T05:36:09;-3.80;77.60
75436;DHT22;64014;53.432;14.534;2022-12-18T05:38:37;-3.90;77.90
75436;DHT22;64014;53.432;14.534;2022-12-18T05:41:04;-4.00;78.00
75436;DHT22;64014;53.432;14.534;2022-12-18T05:43:30;-3.90;78.10
75436;DHT22;64014;53.432;14.534;2022-12-18T05:45:56;-3.90;78.00
75436;DHT22;64014;53.432;14.534;2022-12-18T05:48:23;-4.00;77.70
75436;DHT22;64014;53.432;14.534;2022-12-18T05:50:50;-4.10;77.60
75436;DHT22;64014;53.432;14.534;2022-12-18T05:53:17;-4.20;77.80
75436;DHT22;64014;53.432;14.534;2022-12-18T05:55:43;-4.40;78.20
75436;DHT22;64014;53.432;14.534;2022-12-18T05:58:11;-4.60;78.60
75436;DHT22;64014;53.432;14.534;2022-12-18T06:00:39;-4.60;78.90
75436;DHT22;64014;53.432;14.534;2022-12-18T06:03:08;-4.80;79.20
75436;DHT22;64014;53.432;14.534;2022-12-18T06:05:41;-4.80;79.70
75436;DHT22;64014;53.432;14.534;2022-12-18T06:08:08;-4.90;80.00
75436;DHT22;64014;53.432;14.534;2022-12-18T06:10:34;-4.90;80.20
75436;DHT22;64014;53.432;14.534;2022-12-18T06:13:00;-5.00;80.50
75436;DHT22;64014;53.432;14.534;2022-12-18T06:15:26;-4.90;80.70
75436;DHT22;64014;53.432;14.534;2022-12-18T06:17:52;-4.90;80.80
75436;DHT22;64014;53.432;14.534;2022-12-18T06:20:18;-4.90;80.80
75436;DHT22;64014;53.432;14.534;2022-12-18T06:22:44;-4.90;80.80
75436;DHT22;64014;53.432;14.534;2022-12-18T06:25:10;-4.80;80.80
75436;DHT22;64014;53.432;14.534;2022-12-18T06:27:35;-4.70;80.80
75436;DHT22;64014;53.432;14.534;2022-12-18T06:30:01;-4.60;80.70
75436;DHT22;64014;53.432;14.534;2022-12-18T06:32:27;-4.60;80.30
75436;DHT22;64014;53.432;14.534;2022-12-18T06:34:53;-4.60;80.30
75436;DHT22;64014;53.432;14.534;2022-12-18T06:37:20;-4.60;80.30
75436;DHT22;64014;53.432;14.534;2022-12-18T06:39:46;-4.50;80.20
75436;DHT22;64014;53.432;14.534;2022-12-18T06:42:12;-4.40;80.00
75436;DHT22;64014;53.432;14.534;2022-12-18T06:44:38;-4.40;79.60
75436;DHT22;64014;53.432;14.534;2022-12-18T06:47:03;-4.30;79.50
75436;DHT22;64014;53.432;14.534;2022-12-18T06:49:29;-4.20;79.40
75436;DHT22;64014;53.432;14.534;2022-12-18T06:51:55;-4.10;79.30
75436;DHT22;64014;53.432;14.534;2022-12-18T06:54:20;-4.10;78.90
75436;DHT22;64014;53.432;14.534;2022-12-18T06:56:46;-4.10;78.60
75436;DHT22;64014;53.432;14.534;2022-12-18T06:59:13;-4.00;78.40
75436;DHT22;64014;53.432;14.534;2022-12-18T07:01:38;-4.00;78.10
75436;DHT22;64014;53.432;14.534;2022-12-18T07:04:04;-4.00;77.70
75436;DHT22;64014;53.432;14.534;2022-12-18T07:06:30;-4.00;77.50
75436;DHT22;64014;53.432;14.534;2022-12-18T07:08:56;-4.00;77.50
75436;DHT22;64014;53.432;14.534;2022-12-18T07:11:22;-4.00;77.30
75436;DHT22;64014;53.432;14.534;2022-12-18T07:13:47;-4.00;77.30
75436;DHT22;64014;53.432;14.534;2022-12-18T07:16:14;-4.00;77.10
75436;DHT22;64014;53.432;14.534;2022-12-18T07:18:40;-4.00;77.00
75436;DHT22;64014;53.432;14.534;2022-12-18T07:21:08;-4.00;76.90
75436;DHT22;64014;53.432;14.534;2022-12-18T07:23:35;-4.00;76.90
75436;DHT22;64014;53.432;14.534;2022-12-18T07:26:08;-3.90;76.60
75436;DHT22;64014;53.432;14.534;2022-12-18T07:28:36;-3.90;76.70
75436;DHT22;64014;53.432;14.534;2022-12-18T07:31:07;-3.90;76.60
75436;DHT22;64014;53.432;14.534;2022-12-18T07:33:34;-3.90;76.80
75436;DHT22;64014;53.432;14.534;2022-12-18T07:36:04;-3.90;77.10
75436;DHT22;64014;53.432;14.534;2022-12-18T07:38:31;-3.80;77.00
75436;DHT22;64014;53.432;14.534;2022-12-18T07:41:05;-3.80;76.90
75436;DHT22;64014;53.432;14.534;2022-12-18T07:43:31;-3.80;76.70
75436;DHT22;64014;53.432;14.534;2022-12-18T07:45:57;-3.60;76.50
75436;DHT22;64014;53.432;14.534;2022-12-18T07:48:23;-3.60;75.90
75436;DHT22;64014;53.432;14.534;2022-12-18T07:50:49;-3.70;75.80
75436;DHT22;64014;53.432;14.534;2022-12-18T07:53:15;-3.60;75.80
75436;DHT22;64014;53.432;14.534;2022-12-18T07:55:43;-3.60;76.00
75436;DHT22;64014;53.432;14.534;2022-12-18T07:58:10;-3.60;76.00
75436;DHT22;64014;53.432;14.534;2022-12-18T08:00:35;-3.60;75.90
75436;DHT22;64014;53.432;14.534;2022-12-18T08:03:01;-3.50;75.80
75436;DHT22;64014;53.432;14.534;2022-12-18T08:05:27;-3.50;75.60
75436;DHT22;64014;53.432;14.534;2022-12-18T08:07:53;-3.50;75.30
75436;DHT22;64014;53.432;14.534;2022-12-18T08:10:20;-3.50;75.00
75436;DHT22;64014;53.432;14.534;2022-12-18T08:12:49;-3.50;75.00
75436;DHT22;64014;53.432;14.534;2022-12-18T08:15:15;-3.60;74.90
75436;DHT22;64014;53.432;14.534;2022-12-18T08:17:40;-3.60;75.00
75436;DHT22;64014;53.432;14.534;2022-12-18T08:20:07;-3.50;75.10
75436;DHT22;64014;53.432;14.534;2022-12-18T08:22:34;-3.50;74.80
75436;DHT22;64014;53.432;14.534;2022-12-18T08:25:03;-3.50;74.60
75436;DHT22;64014;53.432;14.534;2022-12-18T08:27:30;-3.50;74.60
75436;DHT22;64014;53.432;14.534;2022-12-18T08:29:56;-3.80;74.50
75436;DHT22;64014;53.432;14.534;2022-12-18T08:32:22;-3.90;75.00
75436;DHT22;64014;53.432;14.534;2022-12-18T08:34:48;-4.00;75.40
75436;DHT22;64014;53.432;14.534;2022-12-18T08:37:14;-4.00;75.70
75436;DHT22;64014;53.432;14.534;2022-12-18T08:39:39;-4.00;75.70
75436;DHT22;64014;53.432;14.534;2022-12-18T08:42:05;-3.90;75.70
75436;DHT22;64014;53.432;14.534;2022-12-18T08:44:49;-3.80;75.70
75436;DHT22;64014;53.432;14.534;2022-12-18T08:47:15;-3.60;75.30
75436;DHT22;64014;53.432;14.534;2022-12-18T08:49:41;-3.60;75.00
75436;DHT22;64014;53.432;14.534;2022-12-18T08:52:06;-3.50;74.60
75436;DHT22;64014;53.432;14.534;2022-12-18T08:54:32;-3.50;74.50
75436;DHT22;64014;53.432;14.534;2022-12-18T08:56:58;-3.50;74.10
75436;DHT22;64014;53.432;14.534;2022-12-18T08:59:24;-3.40;74.10
75436;DHT22;64014;53.432;14.534;2022-12-18T09:01:50;-3.40;74.00
75436;DHT22;64014;53.432;14.534;2022-12-18T09:04:16;-3.30;73.70
75436;DHT22;64014;53.432;14.534;2022-12-18T09:06:42;-3.20;73.60
75436;DHT22;64014;53.432;14.534;2022-12-18T09:09:08;-3.20;73.40
75436;DHT22;64014;53.432;14.534;2022-12-18T09:11:34;-3.20;73.30
75436;DHT22;64014;53.432;14.534;2022-12-18T09:14:00;-3.20;73.30
75436;DHT22;64014;53.432;14.534;2022-12-18T09:16:27;-3.20;73.50
75436;DHT22;64014;53.432;14.534;2022-12-18T09:18:55;-3.20;73.40
75436;DHT22;64014;53.432;14.534;2022-12-18T09:21:25;-3.10;73.20
75436;DHT22;64014;53.432;14.534;2022-12-18T09:23:52;-3.00;73.10
75436;DHT22;64014;53.432;14.534;2022-12-18T09:26:19;-2.90;72.90
75436;DHT22;64014;53.432;14.534;2022-12-18T09:28:45;-2.80;72.60
75436;DHT22;64014;53.432;14.534;2022-12-18T09:31:12;-2.80;72.10
75436;DHT22;64014;53.432;14.534;2022-12-18T09:33:38;-2.90;72.10
75436;DHT22;64014;53.432;14.534;2022-12-18T09:36:06;-3.00;72.50
75436;DHT22;64014;53.432;14.534;2022-12-18T09:38:33;-3.00;73.00
75436;DHT22;64014;53.432;14.534;2022-12-18T09:41:25;-3.00;73.10
75436;DHT22;64014;53.432;14.534;2022-12-18T09:43:55;-3.00;73.10
75436;DHT22;64014;53.432;14.534;2022-12-18T09:46:27;-3.10;73.20
75436;DHT22;64014;53.432;14.534;2022-12-18T09:48:58;-3.00;73.30
75436;DHT22;64014;53.432;14.534;2022-12-18T09:51:46;-2.90;73.30
75436;DHT22;64014;53.432;14.534;2022-12-18T09:54:18;-2.90;73.10
75436;DHT22;64014;53.432;14.534;2022-12-18T09:56:45;-2.80;72.90
75436;DHT22;64014;53.432;14.534;2022-12-18T09:59:25;-2.70;72.80
75436;DHT22;64014;53.432;14.534;2022-12-18T10:01:52;-2.60;72.50
75436;DHT22;64014;53.432;14.534;2022-12-18T10:04:18;-2.80;72.20
75436;DHT22;64014;53.432;14.534;2022-12-18T10:06:54;-3.10;72.90
75436;DHT22;64014;53.432;14.534;2022-12-18T10:18:01;-3.60;75.60
75436;DHT22;64014;53.432;14.534;2022-12-18T10:20:35;-3.50;75.50
75436;DHT22;64014;53.432;14.534;2022-12-18T10:23:33;-3.50;75.50
75436;DHT22;64014;53.432;14.534;2022-12-18T10:28:31;-3.40;75.90
75436;DHT22;64014;53.432;14.534;2022-12-18T10:30:58;-3.30;75.50
75436;DHT22;64014;53.432;14.534;2022-12-18T10:33:29;-3.40;75.30
75436;DHT22;64014;53.432;14.534;2022-12-18T10:35:55;-3.40;75.30
75436;DHT22;64014;53.432;14.534;2022-12-18T10:38:26;-3.30;75.50
75436;DHT22;64014;53.432;14.534;2022-12-18T10:40:57;-3.10;75.50
75436;DHT22;64014;53.432;14.534;2022-12-18T10:43:34;-2.90;75.10
75436;DHT22;64014;53.432;14.534;2022-12-18T10:48:47;-2.60;74.00
75436;DHT22;64014;53.432;14.534;2022-12-18T10:51:28;-2.50;73.20
75436;DHT22;64014;53.432;14.534;2022-12-18T10:53:56;-2.50;72.90
75436;DHT22;64014;53.432;14.534;2022-12-18T10:56:24;-2.40;72.70
75436;DHT22;64014;53.432;14.534;2022-12-18T10:59:03;-2.40;72.50
75436;DHT22;64014;53.432;14.534;2022-12-18T11:01:46;-2.30;72.50
75436;DHT22;64014;53.432;14.534;2022-12-18T11:04:17;-2.20;72.00
75436;DHT22;64014;53.432;14.534;2022-12-18T11:07:03;-2.10;71.50
75436;DHT22;64014;53.432;14.534;2022-12-18T11:09:40;-2.10;71.40
75436;DHT22;64014;53.432;14.534;2022-12-18T11:12:15;-2.00;71.10
75436;DHT22;64014;53.432;14.534;2022-12-18T11:14:49;-1.90;71.20
75436;DHT22;64014;53.432;14.534;2022-12-18T11:17:30;-1.80;71.00
75436;DHT22;64014;53.432;14.534;2022-12-18T11:20:04;-1.70;70.80
75436;DHT22;64014;53.432;14.534;2022-12-18T11:22:34;-1.70;70.80
75436;DHT22;64014;53.432;14.534;2022-12-18T11:27:41;-1.80;70.50
75436;DHT22;64014;53.432;14.534;2022-12-18T11:30:31;-1.80;70.70
75436;DHT22;64014;53.432;14.534;2022-12-18T11:38:39;-1.70;70.90
75436;DHT22;64014;53.432;14.534;2022-12-18T11:41:19;-1.70;70.50
75436;DHT22;64014;53.432;14.534;2022-12-18T11:43:54;-1.70;70.40
75436;DHT22;64014;53.432;14.534;2022-12-18T11:46:34;-1.70;70.40
75436;DHT22;64014;53.432;14.534;2022-12-18T11:49:03;-1.60;70.40
75436;DHT22;64014;53.432;14.534;2022-12-18T11:51:41;-1.60;70.40
75436;DHT22;64014;53.432;14.534;2022-12-18T11:54:14;-1.60;70.40
75436;DHT22;64014;53.432;14.534;2022-12-18T11:57:06;-1.70;70.60
75436;DHT22;64014;53.432;14.534;2022-12-18T12:05:33;-1.60;70.90
75436;DHT22;64014;53.432;14.534;2022-12-18T12:11:22;-1.70;70.90
75436;DHT22;64014;53.432;14.534;2022-12-18T12:14:24;-1.70;71.00
75436;DHT22;64014;53.432;14.534;2022-12-18T12:27:44;-1.60;71.10
75436;DHT22;64014;53.432;14.534;2022-12-18T12:30:20;-1.50;70.70
75436;DHT22;64014;53.432;14.534;2022-12-18T12:38:41;-1.50;70.30
75436;DHT22;64014;53.432;14.534;2022-12-18T12:41:14;-1.50;70.00
75436;DHT22;64014;53.432;14.534;2022-12-18T12:44:04;-1.60;69.90
75436;DHT22;64014;53.432;14.534;2022-12-18T12:46:34;-1.50;70.10
75436;DHT22;64014;53.432;14.534;2022-12-18T12:49:03;-1.60;70.30
75436;DHT22;64014;53.432;14.534;2022-12-18T12:51:39;-1.70;70.70
75436;DHT22;64014;53.432;14.534;2022-12-18T12:54:14;-1.70;71.00
75436;DHT22;64014;53.432;14.534;2022-12-18T12:56:56;-1.70;71.00
75436;DHT22;64014;53.432;14.534;2022-12-18T13:02:44;-1.90;71.20
75436;DHT22;64014;53.432;14.534;2022-12-18T13:07:54;-2.00;71.60
75436;DHT22;64014;53.432;14.534;2022-12-18T13:10:31;-2.00;71.70
75436;DHT22;64014;53.432;14.534;2022-12-18T13:20:39;-2.00;71.80
75436;DHT22;64014;53.432;14.534;2022-12-18T13:31:15;-2.10;72.00
75436;DHT22;64014;53.432;14.534;2022-12-18T13:34:22;-2.00;72.00
75436;DHT22;64014;53.432;14.534;2022-12-18T13:36:49;-2.00;72.00
75436;DHT22;64014;53.432;14.534;2022-12-18T13:39:21;-2.00;71.80
75436;DHT22;64014;53.432;14.534;2022-12-18T13:45:00;-2.00;71.70
75436;DHT22;64014;53.432;14.534;2022-12-18T13:47:37;-2.00;71.80
75436;DHT22;64014;53.432;14.534;2022-12-18T13:50:24;-1.90;71.80
75436;DHT22;64014;53.432;14.534;2022-12-18T13:52:50;-1.90;71.70
75436;DHT22;64014;53.432;14.534;2022-12-18T13:55:18;-1.90;71.60
75436;DHT22;64014;53.432;14.534;2022-12-18T13:57:45;-1.90;71.70
75436;DHT22;64014;53.432;14.534;2022-12-18T14:00:28;-1.90;71.50
75436;DHT22;64014;53.432;14.534;2022-12-18T14:02:55;-2.00;71.00
75436;DHT22;64014;53.432;14.534;2022-12-18T14:05:29;-2.10;70.80
75436;DHT22;64014;53.432;14.534;2022-12-18T14:08:08;-2.10;71.00
75436;DHT22;64014;53.432;14.534;2022-12-18T14:10:35;-2.20;71.20
75436;DHT22;64014;53.432;14.534;2022-12-18T14:13:06;-2.20;71.60
75436;DHT22;64014;53.432;14.534;2022-12-18T14:15:41;-2.30;71.90
75436;DHT22;64014;53.432;14.534;2022-12-18T14:18:23;-2.30;72.20
75436;DHT22;64014;53.432;14.534;2022-12-18T14:20:56;-2.30;72.50
75436;DHT22;64014;53.432;14.534;2022-12-18T14:23:37;-2.30;72.60
75436;DHT22;64014;53.432;14.534;2022-12-18T14:26:20;-2.40;72.90
75436;DHT22;64014;53.432;14.534;2022-12-18T14:28:47;-2.40;73.00
75436;DHT22;64014;53.432;14.534;2022-12-18T14:31:20;-2.50;73.00
75436;DHT22;64014;53.432;14.534;2022-12-18T14:33:46;-2.50;72.80
75436;DHT22;64014;53.432;14.534;2022-12-18T14:36:19;-2.60;72.70
75436;DHT22;64014;53.432;14.534;2022-12-18T14:38:52;-2.60;72.90
75436;DHT22;64014;53.432;14.534;2022-12-18T14:41:20;-2.60;73.10
75436;DHT22;64014;53.432;14.534;2022-12-18T14:43:49;-2.60;73.30
75436;DHT22;64014;53.432;14.534;2022-12-18T14:46:28;-2.60;73.50
75436;DHT22;64014;53.432;14.534;2022-12-18T14:48:55;-2.60;73.60
75436;DHT22;64014;53.432;14.534;2022-12-18T14:51:24;-2.70;73.60
75436;DHT22;64014;53.432;14.534;2022-12-18T14:53:58;-2.80;73.80
75436;DHT22;64014;53.432;14.534;2022-12-18T14:56:35;-2.90;73.80
75436;DHT22;64014;53.432;14.534;2022-12-18T14:59:12;-2.90;73.90
75436;DHT22;64014;53.432;14.534;2022-12-18T15:04:36;-2.90;74.10
75436;DHT22;64014;53.432;14.534;2022-12-18T15:07:23;-2.90;74.30
75436;DHT22;64014;53.432;14.534;2022-12-18T15:12:44;-2.90;74.50
75436;DHT22;64014;53.432;14.534;2022-12-18T15:17:59;-2.90;74.40
75436;DHT22;64014;53.432;14.534;2022-12-18T15:20:27;-2.80;74.50
75436;DHT22;64014;53.432;14.534;2022-12-18T15:22:53;-2.80;74.40
75436;DHT22;64014;53.432;14.534;2022-12-18T15:25:31;-2.80;74.40
75436;DHT22;64014;53.432;14.534;2022-12-18T15:27:58;-2.80;74.50
75436;DHT22;64014;53.432;14.534;2022-12-18T15:30:24;-2.80;74.30
75436;DHT22;64014;53.432;14.534;2022-12-18T15:32:51;-2.80;74.00
75436;DHT22;64014;53.432;14.534;2022-12-18T15:35:23;-2.80;73.90
75436;DHT22;64014;53.432;14.534;2022-12-18T15:37:51;-2.90;73.50
75436;DHT22;64014;53.432;14.534;2022-12-18T15:40:23;-3.00;73.70
75436;DHT22;64014;53.432;14.534;2022-12-18T15:42:52;-3.00;73.80
75436;DHT22;64014;53.432;14.534;2022-12-18T15:45:38;-3.00;73.90
75436;DHT22;64014;53.432;14.534;2022-12-18T15:48:21;-2.90;73.70
75436;DHT22;64014;53.432;14.534;2022-12-18T15:50:47;-3.00;74.00
75436;DHT22;64014;53.432;14.534;2022-12-18T15:53:12;-2.90;73.90
75436;DHT22;64014;53.432;14.534;2022-12-18T15:55:38;-2.90;74.00
75436;DHT22;64014;53.432;14.534;2022-12-18T15:58:22;-2.90;74.00
75436;DHT22;64014;53.432;14.534;2022-12-18T16:00:48;-2.90;74.10
75436;DHT22;64014;53.432;14.534;2022-12-18T16:03:14;-2.80;74.10
75436;DHT22;64014;53.432;14.534;2022-12-18T16:05:39;-2.80;74.00
75436;DHT22;64014;53.432;14.534;2022-12-18T16:08:05;-2.80;73.80
75436;DHT22;64014;53.432;14.534;2022-12-18T16:10:34;-2.90;73.80
75436;DHT22;64014;53.432;14.534;2022-12-18T16:13:00;-2.90;73.80
75436;DHT22;64014;53.432;14.534;2022-12-18T16:15:26;-2.90;73.90
75436;DHT22;64014;53.432;14.534;2022-12-18T16:17:52;-2.90;74.00
75436;DHT22;64014;53.432;14.534;2022-12-18T16:20:20;-2.90;74.10
75436;DHT22;64014;53.432;14.534;2022-12-18T16:22:47;-2.90;74.20
75436;DHT22;64014;53.432;14.534;2022-12-18T16:25:18;-2.90;74.20
75436;DHT22;64014;53.432;14.534;2022-12-18T16:27:49;-2.90;74.30
75436;DHT22;64014;53.432;14.534;2022-12-18T16:30:19;-2.90;74.20
75436;DHT22;64014;53.432;14.534;2022-12-18T16:32:45;-3.00;74.10
75436;DHT22;64014;53.432;14.534;2022-12-18T16:35:15;-3.00;74.30
75436;DHT22;64014;53.432;14.534;2022-12-18T16:37:42;-3.00;74.50
75436;DHT22;64014;53.432;14.534;2022-12-18T16:40:10;-3.00;74.50
75436;DHT22;64014;53.432;14.534;2022-12-18T16:42:37;-2.90;74.50
75436;DHT22;64014;53.432;14.534;2022-12-18T16:45:05;-2.90;74.40
75436;DHT22;64014;53.432;14.534;2022-12-18T16:47:31;-2.90;74.40
75436;DHT22;64014;53.432;14.534;2022-12-18T16:49:56;-2.90;74.20
75436;DHT22;64014;53.432;14.534;2022-12-18T16:52:22;-2.90;74.30
75436;DHT22;64014;53.432;14.534;2022-12-18T16:54:48;-2.90;74.40
75436;DHT22;64014;53.432;14.534;2022-12-18T16:57:17;-2.80;74.30
75436;DHT22;64014;53.432;14.534;2022-12-18T16:59:43;-2.70;74.30
75436;DHT22;64014;53.432;14.534;2022-12-18T17:02:14;-2.70;74.20
75436;DHT22;64014;53.432;14.534;2022-12-18T17:04:41;-2.70;74.00
75436;DHT22;64014;53.432;14.534;2022-12-18T17:07:07;-2.70;73.70
75436;DHT22;64014;53.432;14.534;2022-12-18T17:09:33;-2.80;73.60